sensor_id;sensor_type;location;lat;lon;timestamp;P1;durP1;ratioP1;P2;durP2;ratioP2
72929;SDS011;61073;54.260;20.816;2023-06-22T00:00:57;19.30;;;13.93;;
72929;SDS011;61073;54.260;20.816;2023-06-22T00:03:24;18.70;;;14.40;;
72929;SDS011;61073;54.260;20.816;2023-06-22T00:05:51;21.35;;;14.98;;
72929;SDS011;61073;54.260;20.816;2023-06-22T00:08:19;18.75;;;14.10;;
72929;SDS011;61073;54.260;20.816;2023-06-22T00:13:13;21.38;;;14.90;;
72929;SDS011;61073;54.260;20.816;2023-06-22T00:15:40;19.08;;;15.20;;
72929;SDS011;61073;54.260;20.816;2023-06-22T00:18:08;19.75;;;15.52;;
72929;SDS011;61073;54.260;20.816;2023-06-22T00:23:05;20.13;;;15.35;;
72929;SDS011;61073;54.260;20.816;2023-06-22T00:25:37;17.45;;;14.77;;
72929;SDS011;61073;54.260;20.816;2023-06-22T00:30:35;16.80;;;13.88;;
72929;SDS011;61073;54.260;20.816;2023-06-22T00:33:02;17.83;;;13.68;;
72929;SDS011;61073;54.260;20.816;2023-06-22T00:35:29;17.50;;;14.27;;
72929;SDS011;61073;54.260;20.816;2023-06-22T00:37:56;26.38;;;14.63;;
72929;SDS011;61073;54.260;20.816;2023-06-22T00:40:30;20.63;;;14.52;;
72929;SDS011;61073;54.260;20.816;2023-06-22T00:42:57;19.52;;;15.32;;
72929;SDS011;61073;54.260;20.816;2023-06-22T00:45:24;22.65;;;16.08;;
72929;SDS011;61073;54.260;20.816;2023-06-22T00:47:52;20.33;;;16.02;;
72929;SDS011;61073;54.260;20.816;2023-06-22T00:50:20;22.05;;;16.13;;
72929;SDS011;61073;54.260;20.816;2023-06-22T00:52:48;22.63;;;16.17;;
72929;SDS011;61073;54.260;20.816;2023-06-22T00:55:18;22.13;;;15.82;;
72929;SDS011;61073;54.260;20.816;2023-06-22T00:57:45;23.40;;;16.25;;
72929;SDS011;61073;54.260;20.816;2023-06-22T01:00:16;22.05;;;15.30;;
72929;SDS011;61073;54.260;20.816;2023-06-22T01:02:46;21.50;;;14.90;;
72929;SDS011;61073;54.260;20.816;2023-06-22T01:05:17;22.88;;;16.20;;
72929;SDS011;61073;54.260;20.816;2023-06-22T01:15:58;23.15;;;15.65;;
72929;SDS011;61073;54.260;20.816;2023-06-22T01:18:28;26.02;;;16.98;;
72929;SDS011;61073;54.260;20.816;2023-06-22T01:20:56;25.52;;;16.98;;
72929;SDS011;61073;54.260;20.816;2023-06-22T01:25:59;23.20;;;15.70;;
72929;SDS011;61073;54.260;20.816;2023-06-22T01:28:39;19.45;;;15.10;;
72929;SDS011;61073;54.260;20.816;2023-06-22T01:31:08;21.30;;;16.80;;
72929;SDS011;61073;54.260;20.816;2023-06-22T01:33:39;21.13;;;16.70;;
72929;SDS011;61073;54.260;20.816;2023-06-22T01:36:07;17.88;;;14.63;;
72929;SDS011;61073;54.260;20.816;2023-06-22T01:38:35;19.30;;;15.13;;
72929;SDS011;61073;54.260;20.816;2023-06-22T01:41:03;22.83;;;16.33;;
72929;SDS011;61073;54.260;20.816;2023-06-22T01:43:30;22.00;;;15.95;;
72929;SDS011;61073;54.260;20.816;2023-06-22T01:45:58;21.05;;;15.68;;
72929;SDS011;61073;54.260;20.816;2023-06-22T01:48:25;18.27;;;14.55;;
72929;SDS011;61073;54.260;20.816;2023-06-22T01:53:23;18.25;;;14.77;;
72929;SDS011;61073;54.260;20.816;2023-06-22T01:55:51;23.15;;;15.77;;
72929;SDS011;61073;54.260;20.816;2023-06-22T01:58:18;37.38;;;18.83;;
72929;SDS011;61073;54.260;20.816;2023-06-22T02:03:14;20.25;;;15.82;;
72929;SDS011;61073;54.260;20.816;2023-06-22T02:05:52;20.30;;;15.45;;
72929;SDS011;61073;54.260;20.816;2023-06-22T02:10:48;22.60;;;16.25;;
72929;SDS011;61073;54.260;20.816;2023-06-22T02:13:16;19.92;;;16.50;;
72929;SDS011;61073;54.260;20.816;2023-06-22T02:15:43;20.98;;;16.48;;
72929;SDS011;61073;54.260;20.816;2023-06-22T02:18:10;24.60;;;17.55;;
72929;SDS011;61073;54.260;20.816;2023-06-22T02:20:37;20.88;;;15.88;;
72929;SDS011;61073;54.260;20.816;2023-06-22T02:23:05;26.88;;;16.00;;
72929;SDS011;61073;54.260;20.816;2023-06-22T02:25:33;21.52;;;15.38;;
72929;SDS011;61073;54.260;20.816;2023-06-22T02:28:00;18.63;;;15.32;;
72929;SDS011;61073;54.260;20.816;2023-06-22T02:30:27;21.38;;;16.42;;
72929;SDS011;61073;54.260;20.816;2023-06-22T02:32:55;21.25;;;15.77;;
72929;SDS011;61073;54.260;20.816;2023-06-22T02:35:26;19.65;;;15.65;;
72929;SDS011;61073;54.260;20.816;2023-06-22T02:37:53;23.88;;;16.38;;
72929;SDS011;61073;54.260;20.816;2023-06-22T02:40:20;22.50;;;16.52;;
72929;SDS011;61073;54.260;20.816;2023-06-22T02:42:47;22.20;;;16.70;;
72929;SDS011;61073;54.260;20.816;2023-06-22T02:45:14;21.88;;;16.60;;
72929;SDS011;61073;54.260;20.816;2023-06-22T02:47:41;22.40;;;16.27;;
72929;SDS011;61073;54.260;20.816;2023-06-22T02:50:08;24.10;;;17.90;;
72929;SDS011;61073;54.260;20.816;2023-06-22T02:52:36;24.08;;;17.00;;
72929;SDS011;61073;54.260;20.816;2023-06-22T02:55:05;20.80;;;15.57;;
72929;SDS011;61073;54.260;20.816;2023-06-22T02:57:34;22.83;;;15.35;;
72929;SDS011;61073;54.260;20.816;2023-06-22T03:00:02;19.60;;;15.52;;
72929;SDS011;61073;54.260;20.816;2023-06-22T03:07:43;19.27;;;15.05;;
72929;SDS011;61073;54.260;20.816;2023-06-22T03:10:10;23.80;;;16.60;;
72929;SDS011;61073;54.260;20.816;2023-06-22T03:12:37;21.13;;;15.48;;
72929;SDS011;61073;54.260;20.816;2023-06-22T03:15:05;23.58;;;15.95;;
72929;SDS011;61073;54.260;20.816;2023-06-22T03:17:33;23.90;;;17.73;;
72929;SDS011;61073;54.260;20.816;2023-06-22T03:20:00;21.00;;;18.08;;
72929;SDS011;61073;54.260;20.816;2023-06-22T03:22:27;20.55;;;16.13;;
72929;SDS011;61073;54.260;20.816;2023-06-22T03:24:54;21.20;;;16.63;;
72929;SDS011;61073;54.260;20.816;2023-06-22T03:29:48;21.92;;;15.60;;
72929;SDS011;61073;54.260;20.816;2023-06-22T03:34:41;27.10;;;15.23;;
72929;SDS011;61073;54.260;20.816;2023-06-22T03:37:13;19.88;;;14.75;;
72929;SDS011;61073;54.260;20.816;2023-06-22T03:39:41;21.25;;;15.88;;
72929;SDS011;61073;54.260;20.816;2023-06-22T03:42:08;20.75;;;14.55;;
72929;SDS011;61073;54.260;20.816;2023-06-22T03:44:35;19.83;;;15.15;;
72929;SDS011;61073;54.260;20.816;2023-06-22T03:47:03;19.30;;;14.75;;
72929;SDS011;61073;54.260;20.816;2023-06-22T03:49:30;20.05;;;15.07;;
72929;SDS011;61073;54.260;20.816;2023-06-22T03:51:57;18.02;;;15.15;;
72929;SDS011;61073;54.260;20.816;2023-06-22T03:54:24;18.33;;;14.65;;
72929;SDS011;61073;54.260;20.816;2023-06-22T03:56:51;19.50;;;15.23;;
72929;SDS011;61073;54.260;20.816;2023-06-22T03:59:18;18.48;;;15.35;;
72929;SDS011;61073;54.260;20.816;2023-06-22T04:01:45;19.17;;;15.90;;
72929;SDS011;61073;54.260;20.816;2023-06-22T04:04:12;18.75;;;15.02;;
72929;SDS011;61073;54.260;20.816;2023-06-22T04:06:39;18.80;;;15.50;;
72929;SDS011;61073;54.260;20.816;2023-06-22T04:09:06;20.15;;;16.08;;
72929;SDS011;61073;54.260;20.816;2023-06-22T04:11:33;19.63;;;15.65;;
72929;SDS011;61073;54.260;20.816;2023-06-22T04:14:00;19.30;;;15.82;;
72929;SDS011;61073;54.260;20.816;2023-06-22T04:16:27;23.20;;;16.30;;
72929;SDS011;61073;54.260;20.816;2023-06-22T04:18:54;21.13;;;18.30;;
72929;SDS011;61073;54.260;20.816;2023-06-22T04:21:21;24.08;;;16.38;;
72929;SDS011;61073;54.260;20.816;2023-06-22T04:26:15;20.13;;;15.52;;
72929;SDS011;61073;54.260;20.816;2023-06-22T04:28:42;17.73;;;14.48;;
72929;SDS011;61073;54.260;20.816;2023-06-22T04:31:09;19.83;;;14.13;;
72929;SDS011;61073;54.260;20.816;2023-06-22T04:33:36;18.58;;;14.85;;
72929;SDS011;61073;54.260;20.816;2023-06-22T04:36:06;21.17;;;15.43;;
72929;SDS011;61073;54.260;20.816;2023-06-22T04:38:33;21.88;;;16.30;;
72929;SDS011;61073;54.260;20.816;2023-06-22T04:41:00;22.13;;;15.73;;
72929;SDS011;61073;54.260;20.816;2023-06-22T04:43:29;19.92;;;14.90;;
72929;SDS011;61073;54.260;20.816;2023-06-22T04:45:56;21.27;;;15.23;;
72929;SDS011;61073;54.260;20.816;2023-06-22T04:50:59;19.92;;;14.30;;
72929;SDS011;61073;54.260;20.816;2023-06-22T04:53:30;18.58;;;14.32;;
72929;SDS011;61073;54.260;20.816;2023-06-22T04:55:57;20.83;;;16.95;;
72929;SDS011;61073;54.260;20.816;2023-06-22T04:58:24;9.93;;;8.63;;
72929;SDS011;61073;54.260;20.816;2023-06-22T05:00:54;11.57;;;8.10;;
72929;SDS011;61073;54.260;20.816;2023-06-22T05:05:52;14.57;;;11.98;;
72929;SDS011;61073;54.260;20.816;2023-06-22T05:08:19;22.88;;;10.80;;
72929;SDS011;61073;54.260;20.816;2023-06-22T05:10:46;14.93;;;10.43;;
72929;SDS011;61073;54.260;20.816;2023-06-22T05:13:20;14.82;;;10.30;;
72929;SDS011;61073;54.260;20.816;2023-06-22T05:15:47;16.90;;;11.50;;
72929;SDS011;61073;54.260;20.816;2023-06-22T05:18:14;10.88;;;9.18;;
72929;SDS011;61073;54.260;20.816;2023-06-22T05:20:41;15.80;;;10.80;;
72929;SDS011;61073;54.260;20.816;2023-06-22T05:23:09;12.27;;;9.90;;
72929;SDS011;61073;54.260;20.816;2023-06-22T05:28:03;14.77;;;9.55;;
72929;SDS011;61073;54.260;20.816;2023-06-22T05:30:37;14.73;;;10.60;;
72929;SDS011;61073;54.260;20.816;2023-06-22T05:33:05;12.55;;;9.15;;
72929;SDS011;61073;54.260;20.816;2023-06-22T05:35:32;12.60;;;10.23;;
72929;SDS011;61073;54.260;20.816;2023-06-22T05:40:25;15.55;;;9.60;;
72929;SDS011;61073;54.260;20.816;2023-06-22T05:42:53;16.15;;;10.70;;
72929;SDS011;61073;54.260;20.816;2023-06-22T05:47:47;16.88;;;8.80;;
72929;SDS011;61073;54.260;20.816;2023-06-22T05:50:14;11.40;;;8.55;;
72929;SDS011;61073;54.260;20.816;2023-06-22T05:52:41;11.02;;;7.70;;
72929;SDS011;61073;54.260;20.816;2023-06-22T05:55:08;11.35;;;8.35;;
72929;SDS011;61073;54.260;20.816;2023-06-22T06:00:02;11.45;;;8.38;;
72929;SDS011;61073;54.260;20.816;2023-06-22T06:02:32;8.80;;;7.32;;
72929;SDS011;61073;54.260;20.816;2023-06-22T06:05:00;11.27;;;8.10;;
72929;SDS011;61073;54.260;20.816;2023-06-22T06:07:28;12.63;;;7.88;;
72929;SDS011;61073;54.260;20.816;2023-06-22T06:09:56;24.58;;;8.65;;
72929;SDS011;61073;54.260;20.816;2023-06-22T06:12:23;12.17;;;8.67;;
72929;SDS011;61073;54.260;20.816;2023-06-22T06:14:50;9.32;;;7.93;;
72929;SDS011;61073;54.260;20.816;2023-06-22T06:17:19;12.73;;;7.93;;
72929;SDS011;61073;54.260;20.816;2023-06-22T06:19:46;11.48;;;8.13;;
72929;SDS011;61073;54.260;20.816;2023-06-22T06:22:13;9.20;;;7.07;;
72929;SDS011;61073;54.260;20.816;2023-06-22T06:24:40;9.88;;;7.80;;
72929;SDS011;61073;54.260;20.816;2023-06-22T06:27:07;12.52;;;7.22;;
72929;SDS011;61073;54.260;20.816;2023-06-22T06:29:35;8.93;;;7.03;;
72929;SDS011;61073;54.260;20.816;2023-06-22T06:32:02;9.48;;;6.45;;
72929;SDS011;61073;54.260;20.816;2023-06-22T06:39:23;9.50;;;6.78;;
72929;SDS011;61073;54.260;20.816;2023-06-22T06:41:52;8.53;;;7.53;;
72929;SDS011;61073;54.260;20.816;2023-06-22T06:44:20;11.47;;;7.60;;
72929;SDS011;61073;54.260;20.816;2023-06-22T06:46:47;10.80;;;7.20;;
72929;SDS011;61073;54.260;20.816;2023-06-22T06:49:14;12.55;;;6.47;;
72929;SDS011;61073;54.260;20.816;2023-06-22T06:51:41;11.55;;;6.20;;
72929;SDS011;61073;54.260;20.816;2023-06-22T06:56:35;11.07;;;6.45;;
72929;SDS011;61073;54.260;20.816;2023-06-22T06:59:02;9.60;;;7.05;;
72929;SDS011;61073;54.260;20.816;2023-06-22T07:01:29;12.85;;;6.80;;
72929;SDS011;61073;54.260;20.816;2023-06-22T07:03:59;10.50;;;6.32;;
72929;SDS011;61073;54.260;20.816;2023-06-22T07:06:27;12.50;;;6.15;;
72929;SDS011;61073;54.260;20.816;2023-06-22T07:11:25;8.25;;;6.63;;
72929;SDS011;61073;54.260;20.816;2023-06-22T07:13:52;8.55;;;6.88;;
72929;SDS011;61073;54.260;20.816;2023-06-22T07:16:20;15.38;;;7.32;;
72929;SDS011;61073;54.260;20.816;2023-06-22T07:21:15;11.50;;;7.28;;
72929;SDS011;61073;54.260;20.816;2023-06-22T07:23:42;9.43;;;7.50;;
72929;SDS011;61073;54.260;20.816;2023-06-22T07:26:09;14.38;;;7.53;;
72929;SDS011;61073;54.260;20.816;2023-06-22T07:28:38;8.80;;;6.43;;
72929;SDS011;61073;54.260;20.816;2023-06-22T07:31:06;11.05;;;6.22;;
72929;SDS011;61073;54.260;20.816;2023-06-22T07:33:34;10.30;;;7.55;;
72929;SDS011;61073;54.260;20.816;2023-06-22T07:36:01;10.05;;;5.85;;
72929;SDS011;61073;54.260;20.816;2023-06-22T07:46:00;8.00;;;6.30;;
72929;SDS011;61073;54.260;20.816;2023-06-22T07:48:27;7.05;;;5.85;;
72929;SDS011;61073;54.260;20.816;2023-06-22T07:53:21;8.13;;;6.40;;
72929;SDS011;61073;54.260;20.816;2023-06-22T07:55:49;20.02;;;6.57;;
72929;SDS011;61073;54.260;20.816;2023-06-22T07:58:16;8.35;;;6.43;;
72929;SDS011;61073;54.260;20.816;2023-06-22T08:00:45;15.88;;;6.22;;
72929;SDS011;61073;54.260;20.816;2023-06-22T08:05:39;11.57;;;6.22;;
72929;SDS011;61073;54.260;20.816;2023-06-22T08:08:06;17.63;;;6.68;;
72929;SDS011;61073;54.260;20.816;2023-06-22T08:13:00;15.85;;;6.05;;
72929;SDS011;61073;54.260;20.816;2023-06-22T08:15:27;17.40;;;5.28;;
72929;SDS011;61073;54.260;20.816;2023-06-22T08:17:54;9.73;;;5.22;;
72929;SDS011;61073;54.260;20.816;2023-06-22T08:20:21;11.93;;;5.80;;
72929;SDS011;61073;54.260;20.816;2023-06-22T08:22:48;7.82;;;4.53;;
72929;SDS011;61073;54.260;20.816;2023-06-22T08:25:15;5.75;;;4.53;;
72929;SDS011;61073;54.260;20.816;2023-06-22T08:30:09;7.22;;;4.53;;
72929;SDS011;61073;54.260;20.816;2023-06-22T08:42:31;16.50;;;4.28;;
72929;SDS011;61073;54.260;20.816;2023-06-22T08:44:59;9.07;;;3.83;;
72929;SDS011;61073;54.260;20.816;2023-06-22T08:47:27;4.35;;;3.60;;
72929;SDS011;61073;54.260;20.816;2023-06-22T08:49:54;8.57;;;3.45;;
72929;SDS011;61073;54.260;20.816;2023-06-22T08:52:21;9.38;;;3.80;;
72929;SDS011;61073;54.260;20.816;2023-06-22T08:54:49;4.38;;;3.33;;
72929;SDS011;61073;54.260;20.816;2023-06-22T08:59:45;4.50;;;3.25;;
72929;SDS011;61073;54.260;20.816;2023-06-22T09:02:12;4.47;;;3.05;;
72929;SDS011;61073;54.260;20.816;2023-06-22T09:07:06;7.03;;;3.75;;
72929;SDS011;61073;54.260;20.816;2023-06-22T09:09:33;4.03;;;3.25;;
72929;SDS011;61073;54.260;20.816;2023-06-22T09:12:00;3.88;;;2.60;;
72929;SDS011;61073;54.260;20.816;2023-06-22T09:14:27;3.47;;;2.45;;
72929;SDS011;61073;54.260;20.816;2023-06-22T09:16:54;7.68;;;2.60;;
72929;SDS011;61073;54.260;20.816;2023-06-22T09:19:21;3.65;;;2.45;;
72929;SDS011;61073;54.260;20.816;2023-06-22T09:21:48;6.10;;;3.40;;
72929;SDS011;61073;54.260;20.816;2023-06-22T09:24:15;3.10;;;2.45;;
72929;SDS011;61073;54.260;20.816;2023-06-22T09:26:42;3.03;;;2.70;;
72929;SDS011;61073;54.260;20.816;2023-06-22T09:29:09;3.97;;;2.25;;
72929;SDS011;61073;54.260;20.816;2023-06-22T09:31:36;4.47;;;2.65;;
72929;SDS011;61073;54.260;20.816;2023-06-22T09:41:25;5.05;;;2.60;;
72929;SDS011;61073;54.260;20.816;2023-06-22T09:43:52;3.60;;;2.40;;
72929;SDS011;61073;54.260;20.816;2023-06-22T09:46:21;3.92;;;2.10;;
72929;SDS011;61073;54.260;20.816;2023-06-22T09:48:51;7.45;;;2.30;;
72929;SDS011;61073;54.260;20.816;2023-06-22T09:51:18;4.15;;;2.13;;
72929;SDS011;61073;54.260;20.816;2023-06-22T09:53:47;3.72;;;2.00;;
72929;SDS011;61073;54.260;20.816;2023-06-22T09:56:14;3.60;;;2.20;;
72929;SDS011;61073;54.260;20.816;2023-06-22T09:58:42;4.85;;;2.33;;
72929;SDS011;61073;54.260;20.816;2023-06-22T10:01:09;10.57;;;2.40;;
72929;SDS011;61073;54.260;20.816;2023-06-22T10:03:36;4.80;;;2.42;;
72929;SDS011;61073;54.260;20.816;2023-06-22T10:06:03;2.90;;;1.90;;
72929;SDS011;61073;54.260;20.816;2023-06-22T10:08:30;2.90;;;2.30;;
72929;SDS011;61073;54.260;20.816;2023-06-22T10:10:57;5.10;;;2.30;;
72929;SDS011;61073;54.260;20.816;2023-06-22T10:13:24;5.43;;;2.08;;
72929;SDS011;61073;54.260;20.816;2023-06-22T10:15:51;3.08;;;2.20;;
72929;SDS011;61073;54.260;20.816;2023-06-22T10:18:19;2.67;;;1.90;;
72929;SDS011;61073;54.260;20.816;2023-06-22T10:23:13;4.90;;;2.25;;
72929;SDS011;61073;54.260;20.816;2023-06-22T10:25:40;4.22;;;2.33;;
72929;SDS011;61073;54.260;20.816;2023-06-22T10:28:07;4.22;;;2.25;;
72929;SDS011;61073;54.260;20.816;2023-06-22T10:30:34;4.28;;;2.55;;
72929;SDS011;61073;54.260;20.816;2023-06-22T10:37:56;3.08;;;2.25;;
72929;SDS011;61073;54.260;20.816;2023-06-22T10:40:23;3.30;;;1.90;;
72929;SDS011;61073;54.260;20.816;2023-06-22T10:42:50;9.38;;;2.70;;
72929;SDS011;61073;54.260;20.816;2023-06-22T10:45:17;3.28;;;2.50;;
72929;SDS011;61073;54.260;20.816;2023-06-22T10:47:44;5.85;;;2.53;;
72929;SDS011;61073;54.260;20.816;2023-06-22T10:50:11;3.00;;;2.40;;
72929;SDS011;61073;54.260;20.816;2023-06-22T10:52:38;2.13;;;1.85;;
72929;SDS011;61073;54.260;20.816;2023-06-22T10:55:06;2.50;;;1.75;;
72929;SDS011;61073;54.260;20.816;2023-06-22T10:57:33;3.63;;;1.98;;
72929;SDS011;61073;54.260;20.816;2023-06-22T11:00:00;3.15;;;2.00;;
72929;SDS011;61073;54.260;20.816;2023-06-22T11:02:27;4.53;;;1.92;;
72929;SDS011;61073;54.260;20.816;2023-06-22T11:04:54;5.28;;;2.15;;
72929;SDS011;61073;54.260;20.816;2023-06-22T11:07:22;2.65;;;1.90;;
72929;SDS011;61073;54.260;20.816;2023-06-22T11:12:16;3.88;;;2.00;;
72929;SDS011;61073;54.260;20.816;2023-06-22T11:14:43;3.72;;;2.30;;
72929;SDS011;61073;54.260;20.816;2023-06-22T11:17:10;4.03;;;2.65;;
72929;SDS011;61073;54.260;20.816;2023-06-22T11:19:38;4.63;;;2.70;;
72929;SDS011;61073;54.260;20.816;2023-06-22T11:26:58;4.88;;;2.63;;
72929;SDS011;61073;54.260;20.816;2023-06-22T11:29:25;14.02;;;2.20;;
72929;SDS011;61073;54.260;20.816;2023-06-22T11:32:01;3.50;;;2.47;;
72929;SDS011;61073;54.260;20.816;2023-06-22T11:34:28;2.58;;;2.13;;
72929;SDS011;61073;54.260;20.816;2023-06-22T11:36:55;4.53;;;2.47;;
72929;SDS011;61073;54.260;20.816;2023-06-22T11:39:22;4.10;;;2.15;;
72929;SDS011;61073;54.260;20.816;2023-06-22T11:41:51;3.63;;;1.95;;
72929;SDS011;61073;54.260;20.816;2023-06-22T11:44:18;3.45;;;2.10;;
72929;SDS011;61073;54.260;20.816;2023-06-22T11:46:45;4.55;;;1.90;;
72929;SDS011;61073;54.260;20.816;2023-06-22T11:49:13;7.63;;;1.90;;
72929;SDS011;61073;54.260;20.816;2023-06-22T11:51:40;7.85;;;2.38;;
72929;SDS011;61073;54.260;20.816;2023-06-22T11:54:07;4.70;;;2.10;;
72929;SDS011;61073;54.260;20.816;2023-06-22T11:56:34;4.13;;;2.10;;
72929;SDS011;61073;54.260;20.816;2023-06-22T11:59:01;5.10;;;2.95;;
72929;SDS011;61073;54.260;20.816;2023-06-22T12:01:28;4.22;;;1.92;;
72929;SDS011;61073;54.260;20.816;2023-06-22T12:03:55;4.10;;;1.95;;
72929;SDS011;61073;54.260;20.816;2023-06-22T12:06:22;5.00;;;1.85;;
72929;SDS011;61073;54.260;20.816;2023-06-22T12:08:49;4.80;;;2.10;;
72929;SDS011;61073;54.260;20.816;2023-06-22T12:11:17;6.15;;;1.85;;
72929;SDS011;61073;54.260;20.816;2023-06-22T12:13:44;5.05;;;1.90;;
72929;SDS011;61073;54.260;20.816;2023-06-22T12:16:11;3.88;;;2.10;;
72929;SDS011;61073;54.260;20.816;2023-06-22T12:21:05;6.45;;;1.77;;
72929;SDS011;61073;54.260;20.816;2023-06-22T12:23:32;4.15;;;1.60;;
72929;SDS011;61073;54.260;20.816;2023-06-22T12:25:59;1.90;;;1.70;;
72929;SDS011;61073;54.260;20.816;2023-06-22T12:28:27;8.15;;;2.25;;
72929;SDS011;61073;54.260;20.816;2023-06-22T12:30:54;2.60;;;1.60;;
72929;SDS011;61073;54.260;20.816;2023-06-22T12:38:16;3.47;;;1.92;;
72929;SDS011;61073;54.260;20.816;2023-06-22T12:40:43;4.57;;;2.03;;
72929;SDS011;61073;54.260;20.816;2023-06-22T12:43:10;3.40;;;2.05;;
72929;SDS011;61073;54.260;20.816;2023-06-22T12:45:37;2.15;;;1.90;;
72929;SDS011;61073;54.260;20.816;2023-06-22T12:48:05;2.70;;;2.00;;
72929;SDS011;61073;54.260;20.816;2023-06-22T12:50:32;3.47;;;2.38;;
72929;SDS011;61073;54.260;20.816;2023-06-22T12:52:59;3.50;;;2.92;;
72929;SDS011;61073;54.260;20.816;2023-06-22T12:55:28;2.22;;;1.92;;
72929;SDS011;61073;54.260;20.816;2023-06-22T12:57:55;3.47;;;2.08;;
72929;SDS011;61073;54.260;20.816;2023-06-22T13:00:22;1.95;;;1.73;;
72929;SDS011;61073;54.260;20.816;2023-06-22T13:22:26;3.35;;;1.85;;
72929;SDS011;61073;54.260;20.816;2023-06-22T13:24:57;6.38;;;2.15;;
72929;SDS011;61073;54.260;20.816;2023-06-22T13:27:24;2.38;;;1.40;;
72929;SDS011;61073;54.260;20.816;2023-06-22T13:29:51;2.15;;;1.55;;
72929;SDS011;61073;54.260;20.816;2023-06-22T13:32:18;3.00;;;1.50;;
72929;SDS011;61073;54.260;20.816;2023-06-22T13:34:46;2.53;;;2.03;;
72929;SDS011;61073;54.260;20.816;2023-06-22T13:37:13;4.88;;;1.70;;
72929;SDS011;61073;54.260;20.816;2023-06-22T13:51:54;3.45;;;1.92;;
72929;SDS011;61073;54.260;20.816;2023-06-22T13:56:51;2.45;;;1.60;;
72929;SDS011;61073;54.260;20.816;2023-06-22T13:59:18;2.10;;;1.63;;
72929;SDS011;61073;54.260;20.816;2023-06-22T14:01:46;3.03;;;1.52;;
72929;SDS011;61073;54.260;20.816;2023-06-22T14:04:13;2.13;;;1.52;;
72929;SDS011;61073;54.260;20.816;2023-06-22T14:06:40;2.10;;;1.33;;
72929;SDS011;61073;54.260;20.816;2023-06-22T14:09:08;1.75;;;1.45;;
72929;SDS011;61073;54.260;20.816;2023-06-22T14:11:35;1.95;;;1.48;;
72929;SDS011;61073;54.260;20.816;2023-06-22T14:16:30;3.97;;;1.60;;
72929;SDS011;61073;54.260;20.816;2023-06-22T14:18:57;6.72;;;2.00;;
72929;SDS011;61073;54.260;20.816;2023-06-22T14:26:18;2.95;;;1.40;;
72929;SDS011;61073;54.260;20.816;2023-06-22T14:31:16;1.90;;;1.70;;
72929;SDS011;61073;54.260;20.816;2023-06-22T14:38:39;1.48;;;1.30;;
72929;SDS011;61073;54.260;20.816;2023-06-22T14:41:06;3.90;;;1.92;;
72929;SDS011;61073;54.260;20.816;2023-06-22T14:43:38;1.75;;;1.60;;
72929;SDS011;61073;54.260;20.816;2023-06-22T14:46:05;5.82;;;1.92;;
72929;SDS011;61073;54.260;20.816;2023-06-22T14:50:59;3.25;;;2.03;;
72929;SDS011;61073;54.260;20.816;2023-06-22T14:55:53;1.80;;;1.70;;
72929;SDS011;61073;54.260;20.816;2023-06-22T14:58:20;3.40;;;2.53;;
72929;SDS011;61073;54.260;20.816;2023-06-22T15:00:48;2.40;;;1.95;;
72929;SDS011;61073;54.260;20.816;2023-06-22T15:03:16;3.15;;;2.83;;
72929;SDS011;61073;54.260;20.816;2023-06-22T15:05:47;3.13;;;2.67;;
72929;SDS011;61073;54.260;20.816;2023-06-22T15:08:14;4.40;;;1.92;;
72929;SDS011;61073;54.260;20.816;2023-06-22T15:10:42;4.13;;;2.00;;
72929;SDS011;61073;54.260;20.816;2023-06-22T15:13:09;2.60;;;2.40;;
72929;SDS011;61073;54.260;20.816;2023-06-22T15:15:36;3.38;;;3.03;;
72929;SDS011;61073;54.260;20.816;2023-06-22T15:18:03;4.82;;;4.22;;
72929;SDS011;61073;54.260;20.816;2023-06-22T15:20:31;6.57;;;5.90;;
72929;SDS011;61073;54.260;20.816;2023-06-22T15:22:58;4.13;;;2.97;;
72929;SDS011;61073;54.260;20.816;2023-06-22T15:25:25;5.18;;;3.60;;
72929;SDS011;61073;54.260;20.816;2023-06-22T15:27:52;2.88;;;2.13;;
72929;SDS011;61073;54.260;20.816;2023-06-22T15:42:39;3.03;;;2.20;;
72929;SDS011;61073;54.260;20.816;2023-06-22T15:45:06;3.20;;;2.10;;
72929;SDS011;61073;54.260;20.816;2023-06-22T15:47:33;2.63;;;2.20;;
72929;SDS011;61073;54.260;20.816;2023-06-22T15:50:00;4.70;;;2.30;;
72929;SDS011;61073;54.260;20.816;2023-06-22T15:52:27;2.30;;;2.10;;
72929;SDS011;61073;54.260;20.816;2023-06-22T15:54:54;3.53;;;1.90;;
72929;SDS011;61073;54.260;20.816;2023-06-22T15:57:24;3.20;;;2.10;;
72929;SDS011;61073;54.260;20.816;2023-06-22T16:04:47;3.17;;;2.40;;
72929;SDS011;61073;54.260;20.816;2023-06-22T16:14:35;3.92;;;2.92;;
72929;SDS011;61073;54.260;20.816;2023-06-22T16:17:03;4.20;;;2.13;;
72929;SDS011;61073;54.260;20.816;2023-06-22T16:34:12;2.83;;;2.20;;
72929;SDS011;61073;54.260;20.816;2023-06-22T16:36:39;6.53;;;5.90;;
72929;SDS011;61073;54.260;20.816;2023-06-22T21:43:41;7.20;;;4.03;;
72929;SDS011;61073;54.260;20.816;2023-06-22T21:46:08;6.70;;;4.35;;
72929;SDS011;61073;54.260;20.816;2023-06-22T21:48:35;6.90;;;4.47;;
72929;SDS011;61073;54.260;20.816;2023-06-22T21:51:02;6.22;;;4.38;;
72929;SDS011;61073;54.260;20.816;2023-06-22T21:55:56;6.20;;;4.03;;
72929;SDS011;61073;54.260;20.816;2023-06-22T21:58:23;6.45;;;4.03;;
72929;SDS011;61073;54.260;20.816;2023-06-22T22:00:51;8.98;;;4.97;;
72929;SDS011;61073;54.260;20.816;2023-06-22T22:03:24;9.75;;;4.43;;
72929;SDS011;61073;54.260;20.816;2023-06-22T22:05:52;11.05;;;5.13;;
72929;SDS011;61073;54.260;20.816;2023-06-22T22:08:19;8.68;;;4.30;;
72929;SDS011;61073;54.260;20.816;2023-06-22T22:10:47;6.75;;;4.43;;
72929;SDS011;61073;54.260;20.816;2023-06-22T22:13:15;7.95;;;5.30;;
72929;SDS011;61073;54.260;20.816;2023-06-22T22:15:41;6.43;;;4.20;;
72929;SDS011;61073;54.260;20.816;2023-06-22T22:18:10;8.27;;;4.90;;
72929;SDS011;61073;54.260;20.816;2023-06-22T22:20:37;7.85;;;4.63;;
72929;SDS011;61073;54.260;20.816;2023-06-22T22:23:04;7.70;;;5.35;;
72929;SDS011;61073;54.260;20.816;2023-06-22T22:25:31;11.40;;;5.75;;
72929;SDS011;61073;54.260;20.816;2023-06-22T22:27:58;10.98;;;4.80;;
72929;SDS011;61073;54.260;20.816;2023-06-22T22:30:25;9.30;;;4.68;;
72929;SDS011;61073;54.260;20.816;2023-06-22T22:32:52;10.07;;;4.43;;
72929;SDS011;61073;54.260;20.816;2023-06-22T22:35:19;8.82;;;4.35;;
72929;SDS011;61073;54.260;20.816;2023-06-22T22:37:46;9.60;;;4.43;;
72929;SDS011;61073;54.260;20.816;2023-06-22T22:40:13;6.43;;;3.78;;
72929;SDS011;61073;54.260;20.816;2023-06-22T22:42:41;9.25;;;4.35;;
72929;SDS011;61073;54.260;20.816;2023-06-22T22:45:08;16.42;;;5.85;;
72929;SDS011;61073;54.260;20.816;2023-06-22T22:47:36;23.75;;;7.30;;
72929;SDS011;61073;54.260;20.816;2023-06-22T22:50:03;19.05;;;6.55;;
72929;SDS011;61073;54.260;20.816;2023-06-22T22:52:30;9.77;;;5.53;;
72929;SDS011;61073;54.260;20.816;2023-06-22T22:54:57;10.77;;;4.47;;
72929;SDS011;61073;54.260;20.816;2023-06-22T22:57:25;11.77;;;5.70;;
72929;SDS011;61073;54.260;20.816;2023-06-22T22:59:54;7.50;;;4.22;;
72929;SDS011;61073;54.260;20.816;2023-06-22T23:02:21;5.20;;;4.20;;
72929;SDS011;61073;54.260;20.816;2023-06-22T23:04:57;10.93;;;5.45;;
72929;SDS011;61073;54.260;20.816;2023-06-22T23:09:54;7.10;;;3.95;;
72929;SDS011;61073;54.260;20.816;2023-06-22T23:14:48;10.50;;;4.32;;
72929;SDS011;61073;54.260;20.816;2023-06-22T23:17:18;6.85;;;3.90;;